< < Back
Terminal Aerodrome Forecast


Current Version              Previous Versions:   1  2  3  4  5  6  7  8  9  

Terminal Aerodrome Forecast

807
FTUS42 KMLB 061131
TAFDAB
TAF
KDAB 061131Z 0612/0712 33005KT P6SM BKN060
     FM061500 02009KT P6SM VCSH SCT025 BKN035
      TEMPO 0622/0624 4SM -SHRA BKN012
     FM070000 35013KT 5SM -SHRA BKN015
     FM070500 32015G22KT 6SM BR VCSH BKN015=



Latest METAR

338
SAUS80 KWBC 070100
MTRDAB
METAR KDAB 070053Z 29007KT 3SM -RA BR OVC005 15/14 A3003 RMK AO2 SFC VIS
6 RAE32B50 SLP168 P0000 T01500139 $


USA.gov is the U.S. government's official web portal to all federal, state and local government web resources and services.